Time;durP1;ratioP1;P1;durP2;ratioP2;P2;SDS_P1;SDS_P2;PMS_P1;PMS_P2;Temp;Humidity;BMP_temperature;BMP_pressure;BME280_temperature;BME280_humidity;BME280_pressure;Samples;Min_cycle;Max_cycle;Signal;HPM_P1;HPM_P2
2021/09/22 04:04:34;;;;;;;3.75;2.00;;;;;;;;;;5070213;27;20550;-49
2021/09/22 04:08:50;;;;;;;4.15;1.85;;;;;;;;;;5070841;28;20557;-45
2021/09/22 04:11:16;;;;;;;2.50;2.30;;;;;;;;;;5070795;28;20183;-45
2021/09/22 04:13:42;;;;;;;7.18;2.78;;;;;;;;;;5070941;28;20183;-45
2021/09/22 04:16:09;;;;;;;4.78;2.45;;;;;;;;;;5070724;28;20185;-45
2021/09/22 04:18:35;;;;;;;4.75;2.35;;;;;;;;;;5070525;28;20217;-45
2021/09/22 04:21:01;;;;;;;7.63;2.75;;;;;;;;;;5070392;28;20167;-45
2021/09/22 04:23:27;;;;;;;5.53;2.38;;;;;;;;;;5061833;28;20207;-45
2021/09/22 04:25:54;;;;;;;10.00;3.05;;;;;;;;;;5050679;28;20168;-45
2021/09/22 04:28:20;;;;;;;4.25;2.10;;;;;;;;;;5045741;28;20203;-45
2021/09/22 04:30:46;;;;;;;4.50;2.63;;;;;;;;;;5050745;28;20262;-45
2021/09/22 04:33:12;;;;;;;4.05;2.08;;;;;;;;;;5049949;28;20258;-45
2021/09/22 04:35:38;;;;;;;4.30;2.30;;;;;;;;;;5050345;28;20271;-45
2021/09/22 04:38:06;;;;;;;6.28;2.47;;;;;;;;;;5045823;28;20172;-45
2021/09/22 04:40:32;;;;;;;5.97;2.30;;;;;;;;;;5030535;28;20267;-45
2021/09/22 04:42:58;;;;;;;6.35;2.45;;;;;;;;;;5030262;28;20168;-45
2021/09/22 04:45:25;;;;;;;5.20;2.58;;;;;;;;;;5030738;28;20251;-45
2021/09/22 04:47:52;;;;;;;6.80;2.67;;;;;;;;;;5039229;28;20285;-45
2021/09/22 04:50:19;;;;;;;10.73;2.55;;;;;;;;;;5050153;28;20313;-45
2021/09/22 04:52:45;;;;;;;3.05;1.90;;;;;;;;;;5043721;28;20200;-45
2021/09/22 04:55:11;;;;;;;3.08;2.10;;;;;;;;;;5030130;28;20168;-45
2021/09/22 04:57:39;;;;;;;5.15;2.25;;;;;;;;;;5030502;28;20172;-45
2021/09/22 05:00:05;;;;;;;3.55;2.15;;;;;;;;;;5044848;28;20203;-45
2021/09/22 05:02:31;;;;;;;6.88;2.60;;;;;;;;;;5045553;28;20175;-45
2021/09/22 05:04:57;;;;;;;3.30;2.30;;;;;;;;;;5029466;28;20179;-45
2021/09/22 05:07:23;;;;;;;5.97;2.38;;;;;;;;;;5044153;28;20241;-45
2021/09/22 05:09:49;;;;;;;3.80;2.20;;;;;;;;;;5047561;28;20183;-45
2021/09/22 05:12:15;;;;;;;3.65;2.28;;;;;;;;;;5047513;28;20185;-45
2021/09/22 05:14:41;;;;;;;3.20;2.08;;;;;;;;;;5029784;28;20187;-45
2021/09/22 05:17:07;;;;;;;2.75;2.17;;;;;;;;;;5031042;28;20183;-45
2021/09/22 05:19:33;;;;;;;3.05;2.15;;;;;;;;;;5035604;28;20179;-45
2021/09/22 05:21:59;;;;;;;4.25;2.20;;;;;;;;;;5036554;28;20168;-45
2021/09/22 05:24:25;;;;;;;4.03;2.17;;;;;;;;;;5036285;28;20238;-45
2021/09/22 05:26:51;;;;;;;4.00;2.13;;;;;;;;;;5036331;28;20195;-45
2021/09/22 05:29:17;;;;;;;6.90;2.20;;;;;;;;;;5035930;28;20179;-45
2021/09/22 05:31:43;;;;;;;4.97;2.40;;;;;;;;;;5035908;28;20229;-45
2021/09/22 05:34:09;;;;;;;4.60;2.03;;;;;;;;;;5036245;28;20578;-45
2021/09/22 05:36:35;;;;;;;3.85;2.08;;;;;;;;;;5035812;28;20180;-45
2021/09/22 05:39:01;;;;;;;3.08;2.30;;;;;;;;;;5027751;28;20291;-45
2021/09/22 05:41:27;;;;;;;4.65;2.00;;;;;;;;;;5036395;28;20176;-45
2021/09/22 05:43:54;;;;;;;4.15;2.20;;;;;;;;;;5036028;28;20207;-47
2021/09/22 05:46:19;;;;;;;3.35;2.10;;;;;;;;;;5035423;28;20191;-47
2021/09/22 05:48:45;;;;;;;4.32;1.80;;;;;;;;;;5027424;28;20263;-47
2021/09/22 05:51:12;;;;;;;2.95;2.33;;;;;;;;;;5016485;28;20168;-47
2021/09/22 05:53:40;;;;;;;2.88;1.80;;;;;;;;;;5029051;28;20563;-46
2021/09/22 05:56:06;;;;;;;5.78;2.20;;;;;;;;;;5035796;28;20204;-45
2021/09/22 05:58:32;;;;;;;4.45;2.03;;;;;;;;;;5029683;28;20525;-45
2021/09/22 06:00:59;;;;;;;3.85;2.05;;;;;;;;;;5024600;28;20195;-45
2021/09/22 06:03:25;;;;;;;2.58;2.03;;;;;;;;;;5015678;28;20175;-45
2021/09/22 06:05:51;;;;;;;3.08;1.88;;;;;;;;;;5015788;28;20180;-45
2021/09/22 06:08:17;;;;;;;2.17;1.67;;;;;;;;;;5025941;28;20246;-45
2021/09/22 06:10:44;;;;;;;3.47;1.90;;;;;;;;;;5026295;28;20206;-45
2021/09/22 06:13:10;;;;;;;2.28;1.80;;;;;;;;;;5035137;28;20168;-45
2021/09/22 06:15:37;;;;;;;2.95;1.90;;;;;;;;;;5034934;28;20180;-46
2021/09/22 06:18:03;;;;;;;2.25;1.88;;;;;;;;;;5028255;28;20192;-45
2021/09/22 06:20:29;;;;;;;3.33;1.92;;;;;;;;;;5027289;28;20183;-45
2021/09/22 06:22:55;;;;;;;4.18;2.08;;;;;;;;;;5026796;28;20548;-45
2021/09/22 06:25:22;;;;;;;2.03;1.83;;;;;;;;;;5015573;28;20560;-45
2021/09/22 06:27:48;;;;;;;3.35;2.10;;;;;;;;;;5016513;28;20212;-46
2021/09/22 06:30:14;;;;;;;2.05;1.85;;;;;;;;;;5033627;28;20191;-45
2021/09/22 06:32:40;;;;;;;3.97;1.92;;;;;;;;;;5034698;28;20180;-45
2021/09/22 06:35:07;;;;;;;3.08;1.98;;;;;;;;;;5034444;28;20176;-45
2021/09/22 06:37:33;;;;;;;2.45;1.83;;;;;;;;;;5034748;28;20184;-45
2021/09/22 06:39:59;;;;;;;2.88;1.70;;;;;;;;;;5035013;28;20266;-45
2021/09/22 06:42:25;;;;;;;3.58;1.63;;;;;;;;;;5030862;28;20255;-45
2021/09/22 06:44:51;;;;;;;3.92;1.90;;;;;;;;;;5014704;28;20235;-45
2021/09/22 06:47:18;;;;;;;4.43;1.90;;;;;;;;;;5017275;28;20510;-45
2021/09/22 06:49:44;;;;;;;2.72;1.83;;;;;;;;;;5019822;28;20291;-45
2021/09/22 06:52:10;;;;;;;3.55;1.77;;;;;;;;;;5023047;28;20259;-45
2021/09/22 06:54:36;;;;;;;3.25;1.90;;;;;;;;;;5034086;28;20168;-45
2021/09/22 06:57:02;;;;;;;3.30;1.90;;;;;;;;;;5034622;28;20552;-45
2021/09/22 06:59:28;;;;;;;4.85;2.22;;;;;;;;;;5033848;28;20209;-45
2021/09/22 07:01:54;;;;;;;4.40;2.17;;;;;;;;;;5019027;28;20197;-45
2021/09/22 07:04:20;;;;;;;3.28;1.83;;;;;;;;;;5014362;28;20183;-45
2021/09/22 07:06:46;;;;;;;1.83;1.67;;;;;;;;;;5014583;28;20563;-45
2021/09/22 07:09:12;;;;;;;2.33;1.85;;;;;;;;;;5023760;28;20192;-45
2021/09/22 07:11:38;;;;;;;3.80;1.80;;;;;;;;;;5033934;28;20262;-45
2021/09/22 07:14:04;;;;;;;5.13;2.10;;;;;;;;;;5033961;28;20176;-45
2021/09/22 07:16:30;;;;;;;2.53;2.00;;;;;;;;;;5033828;28;20501;-45
2021/09/22 07:18:57;;;;;;;4.53;2.15;;;;;;;;;;5031639;28;20183;-45
2021/09/22 07:21:23;;;;;;;3.92;2.03;;;;;;;;;;5034527;28;20190;-45
2021/09/22 07:23:49;;;;;;;2.78;1.90;;;;;;;;;;5033535;28;20284;-45
2021/09/22 07:26:16;;;;;;;5.45;2.40;;;;;;;;;;5019735;28;20187;-45
2021/09/22 07:28:42;;;;;;;3.17;2.10;;;;;;;;;;5019671;28;20216;-45
2021/09/22 07:31:08;;;;;;;5.53;2.38;;;;;;;;;;5023392;28;20535;-45
2021/09/22 07:33:34;;;;;;;6.25;2.97;;;;;;;;;;5013740;28;20175;-45
2021/09/22 07:36:00;;;;;;;4.43;2.53;;;;;;;;;;5014430;28;20731;-45
2021/09/22 07:38:27;;;;;;;6.43;3.45;;;;;;;;;;5017560;28;20689;-45
2021/09/22 07:40:53;;;;;;;4.95;3.00;;;;;;;;;;5034259;28;20194;-45
2021/09/22 07:43:19;;;;;;;4.88;2.45;;;;;;;;;;5030566;28;20184;-45
2021/09/22 07:45:45;;;;;;;6.40;2.60;;;;;;;;;;5033404;28;20183;-45
2021/09/22 07:48:11;;;;;;;5.45;2.67;;;;;;;;;;5024344;28;20215;-45
2021/09/22 07:50:37;;;;;;;3.85;2.35;;;;;;;;;;5033615;28;20184;-45
2021/09/22 07:53:04;;;;;;;5.40;2.55;;;;;;;;;;5026734;28;20761;-45
2021/09/22 07:55:30;;;;;;;3.35;2.40;;;;;;;;;;5028913;28;20199;-45
2021/09/22 07:57:56;;;;;;;4.05;2.40;;;;;;;;;;5014250;28;20199;-45
2021/09/22 08:00:23;;;;;;;4.50;2.63;;;;;;;;;;5031195;28;20219;-45
2021/09/22 08:02:50;;;;;;;2.58;2.35;;;;;;;;;;5032829;28;20187;-45
2021/09/22 08:05:16;;;;;;;4.93;2.75;;;;;;;;;;5033282;28;20180;-45
2021/09/22 08:07:43;;;;;;;5.88;2.83;;;;;;;;;;5033556;28;20414;-45
2021/09/22 08:10:09;;;;;;;3.42;2.40;;;;;;;;;;5023055;28;20253;-45
2021/09/22 08:12:35;;;;;;;4.40;2.30;;;;;;;;;;5033332;28;20263;-45
2021/09/22 08:15:01;;;;;;;4.40;2.80;;;;;;;;;;5032935;28;20354;-45
2021/09/22 08:17:27;;;;;;;5.78;2.63;;;;;;;;;;5033478;28;20606;-45
2021/09/22 08:19:53;;;;;;;4.45;2.63;;;;;;;;;;5032514;28;20262;-45
2021/09/22 08:22:19;;;;;;;5.68;2.60;;;;;;;;;;5033066;28;20180;-45
2021/09/22 08:24:46;;;;;;;4.70;2.70;;;;;;;;;;5029529;28;20195;-45
2021/09/22 08:27:13;;;;;;;4.18;2.42;;;;;;;;;;5013650;28;20205;-45
2021/09/22 08:29:39;;;;;;;5.03;2.83;;;;;;;;;;5025548;28;20495;-45
2021/09/22 08:32:05;;;;;;;4.25;2.72;;;;;;;;;;5032740;28;20426;-45
2021/09/22 08:34:31;;;;;;;5.22;2.63;;;;;;;;;;5012992;28;20255;-45
2021/09/22 08:36:57;;;;;;;4.13;2.85;;;;;;;;;;5023434;28;20222;-45
2021/09/22 08:39:23;;;;;;;5.15;2.30;;;;;;;;;;5024021;28;20199;-45
2021/09/22 08:41:50;;;;;;;4.95;2.85;;;;;;;;;;5033698;28;20188;-45
2021/09/22 08:44:17;;;;;;;5.20;2.53;;;;;;;;;;5032559;28;20184;-45
2021/09/22 08:46:44;;;;;;;4.28;2.92;;;;;;;;;;5033271;28;20250;-45
2021/09/22 08:49:11;;;;;;;4.15;2.42;;;;;;;;;;5031215;28;20176;-45
2021/09/22 08:51:37;;;;;;;4.53;2.80;;;;;;;;;;5031884;28;20251;-45
2021/09/22 08:54:03;;;;;;;3.58;2.40;;;;;;;;;;5028123;28;20180;-45
2021/09/22 08:56:29;;;;;;;4.78;2.65;;;;;;;;;;5036239;28;20184;-45
2021/09/22 08:58:55;;;;;;;6.47;2.67;;;;;;;;;;5023306;28;20456;-45
2021/09/22 09:01:24;;;;;;;3.90;2.53;;;;;;;;;;5017286;28;20643;-45
2021/09/22 09:03:50;;;;;;;6.88;2.92;;;;;;;;;;5031768;28;20444;-45
2021/09/22 09:06:17;;;;;;;6.18;2.75;;;;;;;;;;5036393;28;20168;-45
2021/09/22 09:08:43;;;;;;;7.32;2.78;;;;;;;;;;5025843;28;20270;-45
2021/09/22 09:11:10;;;;;;;5.05;2.72;;;;;;;;;;5036752;28;20463;-45
2021/09/22 09:13:47;;;;;;;4.40;2.70;;;;;;;;;;5023078;28;20195;-45
2021/09/22 09:16:17;;;;;;;5.93;2.97;;;;;;;;;;5016501;28;20551;-45
2021/09/22 09:18:47;;;;;;;5.82;2.63;;;;;;;;;;5020832;28;20544;-45
2021/09/22 09:21:13;;;;;;;4.47;2.50;;;;;;;;;;5034936;28;20238;-45
2021/09/22 09:23:48;;;;;;;5.72;2.72;;;;;;;;;;5035659;28;20223;-45
2021/09/22 09:26:16;;;;;;;5.75;2.47;;;;;;;;;;5034400;28;20179;-45
2021/09/22 09:28:46;;;;;;;6.80;2.60;;;;;;;;;;5033605;28;20204;-45
2021/09/22 09:31:12;;;;;;;8.70;3.22;;;;;;;;;;5017169;28;20630;-45
2021/09/22 09:33:47;;;;;;;4.28;2.42;;;;;;;;;;5016052;28;20173;-45
2021/09/22 09:36:18;;;;;;;5.35;2.60;;;;;;;;;;5035941;28;20187;-45
2021/09/22 09:38:51;;;;;;;5.47;2.70;;;;;;;;;;5024388;28;20204;-45
2021/09/22 09:41:31;;;;;;;6.05;2.92;;;;;;;;;;5036476;28;20555;-44
2021/09/22 09:43:58;;;;;;;4.85;2.53;;;;;;;;;;5018635;28;20188;-45
2021/09/22 09:46:25;;;;;;;4.43;2.60;;;;;;;;;;5019675;28;20203;-45
2021/09/22 09:49:11;;;;;;;4.75;2.60;;;;;;;;;;5032392;28;20286;-45
2021/09/22 09:51:45;;;;;;;4.22;2.38;;;;;;;;;;5028394;28;20800;-45
2021/09/22 09:54:18;;;;;;;4.55;2.55;;;;;;;;;;5035044;28;20442;-45
2021/09/22 09:56:44;;;;;;;4.32;2.20;;;;;;;;;;5035670;28;20210;-45
2021/09/22 09:59:11;;;;;;;5.65;2.55;;;;;;;;;;5031044;28;20180;-45
2021/09/22 10:01:47;;;;;;;5.32;2.60;;;;;;;;;;5032591;28;20176;-45
2021/09/22 10:04:17;;;;;;;3.72;2.10;;;;;;;;;;5016842;28;20564;-45
2021/09/22 10:06:43;;;;;;;4.50;2.35;;;;;;;;;;5021458;28;20191;-45
2021/09/22 10:09:10;;;;;;;5.25;2.30;;;;;;;;;;5030165;28;20173;-45
2021/09/22 10:11:37;;;;;;;7.82;2.50;;;;;;;;;;5033126;28;20216;-45
2021/09/22 10:14:04;;;;;;;5.38;2.45;;;;;;;;;;5018174;28;20176;-45
2021/09/22 10:16:32;;;;;;;4.95;2.20;;;;;;;;;;5024076;28;20176;-45
2021/09/22 10:18:58;;;;;;;5.07;2.25;;;;;;;;;;5034785;28;20203;-45
2021/09/22 10:21:25;;;;;;;7.75;2.70;;;;;;;;;;5034842;28;20249;-45
2021/09/22 10:23:52;;;;;;;4.57;2.45;;;;;;;;;;5034445;28;20550;-45
2021/09/22 10:26:19;;;;;;;4.25;1.95;;;;;;;;;;5034331;28;20195;-45
2021/09/22 10:28:46;;;;;;;5.28;2.20;;;;;;;;;;5033599;28;20195;-45
2021/09/22 10:31:35;;;;;;;5.97;2.50;;;;;;;;;;5035132;28;20176;-45
2021/09/22 10:34:01;;;;;;;4.60;2.47;;;;;;;;;;5033334;28;20196;-45
2021/09/22 10:36:38;;;;;;;7.93;2.60;;;;;;;;;;5034326;28;20172;-45
2021/09/22 10:39:05;;;;;;;6.97;2.40;;;;;;;;;;5025282;28;20466;-45
2021/09/22 10:41:42;;;;;;;5.82;2.47;;;;;;;;;;5034425;28;20866;-45
2021/09/22 10:44:12;;;;;;;5.32;2.47;;;;;;;;;;5034526;28;20171;-45
2021/09/22 10:46:38;;;;;;;4.90;2.40;;;;;;;;;;5034420;28;20279;-45
2021/09/22 10:49:06;;;;;;;7.05;2.30;;;;;;;;;;5021582;28;20266;-45
2021/09/22 10:51:37;;;;;;;6.88;2.58;;;;;;;;;;5033122;28;20176;-45
2021/09/22 10:54:07;;;;;;;4.78;2.63;;;;;;;;;;5032507;28;20188;-45
2021/09/22 10:56:33;;;;;;;7.03;2.38;;;;;;;;;;5033744;28;20183;-45
2021/09/22 10:59:02;;;;;;;5.85;2.53;;;;;;;;;;5034117;28;20180;-45
2021/09/22 11:01:48;;;;;;;4.78;2.28;;;;;;;;;;5034234;28;20262;-45
2021/09/22 11:04:14;;;;;;;7.95;2.30;;;;;;;;;;5033316;28;20566;-45
2021/09/22 11:06:47;;;;;;;6.78;2.58;;;;;;;;;;5033168;28;20194;-44
2021/09/22 11:09:27;;;;;;;5.15;2.30;;;;;;;;;;5033149;28;20187;-45
2021/09/22 11:11:56;;;;;;;6.18;2.60;;;;;;;;;;5033920;28;20806;-45
2021/09/22 11:14:32;;;;;;;9.20;2.60;;;;;;;;;;5033511;28;20183;-44
2021/09/22 11:17:03;;;;;;;7.70;2.50;;;;;;;;;;5032829;28;20175;-44
2021/09/22 11:19:29;;;;;;;5.93;2.42;;;;;;;;;;5030975;28;20515;-45
2021/09/22 11:21:56;;;;;;;4.32;2.08;;;;;;;;;;5034026;28;20444;-45
2021/09/22 11:24:23;;;;;;;5.72;2.55;;;;;;;;;;5033823;28;20207;-45
2021/09/22 11:26:53;;;;;;;7.88;2.63;;;;;;;;;;5033977;28;20176;-45
2021/09/22 11:29:36;;;;;;;9.35;2.85;;;;;;;;;;5019194;28;20179;-45
2021/09/22 11:32:06;;;;;;;7.00;2.53;;;;;;;;;;5021350;28;20255;-45
2021/09/22 11:34:35;;;;;;;8.63;2.50;;;;;;;;;;5013533;28;20180;-45
2021/09/22 11:37:07;;;;;;;7.90;2.25;;;;;;;;;;5014141;28;20650;-44
2021/09/22 11:39:33;;;;;;;5.78;2.15;;;;;;;;;;5020233;28;20175;-45
2021/09/22 11:41:59;;;;;;;5.68;2.42;;;;;;;;;;5033998;28;20179;-45
2021/09/22 11:44:26;;;;;;;5.05;2.17;;;;;;;;;;5033238;28;20425;-45
2021/09/22 11:46:58;;;;;;;5.65;2.20;;;;;;;;;;5033440;28;20255;-45
2021/09/22 11:49:30;;;;;;;9.98;2.67;;;;;;;;;;5035632;28;20269;-45
2021/09/22 11:52:14;;;;;;;8.02;2.50;;;;;;;;;;5030251;28;20617;-45
2021/09/22 11:54:53;;;;;;;9.32;2.80;;;;;;;;;;5015464;28;20169;-45
2021/09/22 11:57:19;;;;;;;10.95;2.67;;;;;;;;;;5019016;28;20267;-45
2021/09/22 11:59:46;;;;;;;11.02;3.15;;;;;;;;;;5021208;28;20183;-45
2021/09/22 12:02:13;;;;;;;11.15;2.75;;;;;;;;;;5031369;28;20230;-45
2021/09/22 12:04:40;;;;;;;14.25;3.28;;;;;;;;;;5013666;28;20172;-45
2021/09/22 12:07:07;;;;;;;11.88;3.00;;;;;;;;;;5013496;28;20207;-45
2021/09/22 12:09:40;;;;;;;10.90;2.80;;;;;;;;;;5020500;28;20179;-45
2021/09/22 12:12:09;;;;;;;12.90;3.55;;;;;;;;;;5032288;28;20202;-45
2021/09/22 12:14:35;;;;;;;8.98;2.83;;;;;;;;;;5016953;28;20180;-45
2021/09/22 12:17:12;;;;;;;13.05;3.42;;;;;;;;;;5032445;28;20183;-45
2021/09/22 12:19:41;;;;;;;7.15;2.92;;;;;;;;;;5024225;28;20219;-45
2021/09/22 12:22:09;;;;;;;10.27;3.55;;;;;;;;;;5033249;28;20187;-45
2021/09/22 12:24:35;;;;;;;12.07;3.03;;;;;;;;;;5032970;28;20199;-45
2021/09/22 12:27:02;;;;;;;13.85;2.80;;;;;;;;;;5033239;28;20248;-45
2021/09/22 12:29:28;;;;;;;10.55;3.10;;;;;;;;;;5034526;28;20184;-45
2021/09/22 12:31:54;;;;;;;10.35;2.83;;;;;;;;;;5037843;28;20172;-45
2021/09/22 12:34:23;;;;;;;10.13;3.25;;;;;;;;;;5036816;28;20203;-45
2021/09/22 12:36:49;;;;;;;6.35;2.55;;;;;;;;;;5036463;28;20471;-45
2021/09/22 12:39:16;;;;;;;7.95;2.83;;;;;;;;;;5034608;28;20184;-45
2021/09/22 12:41:58;;;;;;;10.50;2.97;;;;;;;;;;5026600;28;20178;-45
2021/09/22 12:44:24;;;;;;;10.70;3.55;;;;;;;;;;5016953;28;20180;-45
2021/09/22 12:46:50;;;;;;;7.20;2.95;;;;;;;;;;5024037;28;20180;-45
2021/09/22 12:49:19;;;;;;;9.30;2.95;;;;;;;;;;5019404;28;20202;-45
2021/09/22 12:51:46;;;;;;;6.20;2.72;;;;;;;;;;5037404;28;20161;-45
2021/09/22 12:54:14;;;;;;;6.45;2.58;;;;;;;;;;5018206;28;20189;-45
2021/09/22 12:56:40;;;;;;;7.82;2.80;;;;;;;;;;5016984;28;20169;-45
2021/09/22 12:59:25;;;;;;;7.70;3.03;;;;;;;;;;5017903;28;20172;-45
2021/09/22 13:01:52;;;;;;;8.38;3.08;;;;;;;;;;5036730;28;20171;-45
2021/09/22 13:04:25;;;;;;;8.77;2.92;;;;;;;;;;5017268;28;20227;-45
2021/09/22 13:06:55;;;;;;;7.85;2.95;;;;;;;;;;5016728;28;20208;-44
2021/09/22 13:09:37;;;;;;;10.27;3.03;;;;;;;;;;5036181;28;20594;-45
2021/09/22 13:12:04;;;;;;;8.35;3.17;;;;;;;;;;5033321;28;20233;-45
2021/09/22 13:14:37;;;;;;;7.55;3.30;;;;;;;;;;5035320;28;20171;-45
2021/09/22 13:17:03;;;;;;;6.88;2.55;;;;;;;;;;5035002;28;20183;-45
2021/09/22 13:19:30;;;;;;;6.65;2.95;;;;;;;;;;5032253;28;20176;-45
2021/09/22 13:21:57;;;;;;;6.97;2.75;;;;;;;;;;5016756;28;20280;-45
2021/09/22 13:24:24;;;;;;;5.93;2.65;;;;;;;;;;5014876;28;20187;-45
2021/09/22 13:26:52;;;;;;;6.38;2.72;;;;;;;;;;5015886;28;20211;-45
2021/09/22 13:29:19;;;;;;;3.90;2.45;;;;;;;;;;5034420;28;20278;-45
2021/09/22 13:31:46;;;;;;;6.75;2.85;;;;;;;;;;5036704;28;20546;-45
2021/09/22 13:34:13;;;;;;;7.72;2.95;;;;;;;;;;5035559;28;20195;-45
2021/09/22 13:36:40;;;;;;;8.52;2.80;;;;;;;;;;5032870;28;20276;-45
2021/09/22 13:39:06;;;;;;;11.65;2.90;;;;;;;;;;5032905;28;20237;-45
2021/09/22 13:41:33;;;;;;;9.93;2.70;;;;;;;;;;5036170;28;20188;-45
2021/09/22 13:44:00;;;;;;;8.93;2.83;;;;;;;;;;5035695;28;20310;-45
2021/09/22 13:46:27;;;;;;;10.52;3.10;;;;;;;;;;5035057;28;20263;-45
2021/09/22 13:48:53;;;;;;;6.70;2.72;;;;;;;;;;5021976;28;20216;-45
2021/09/22 13:51:19;;;;;;;9.68;2.85;;;;;;;;;;5048214;28;20179;-45
2021/09/22 13:53:48;;;;;;;8.00;3.00;;;;;;;;;;5037848;28;20750;-45
2021/09/22 13:56:15;;;;;;;9.38;2.95;;;;;;;;;;5048679;28;20182;-45
2021/09/22 13:58:41;;;;;;;5.90;2.85;;;;;;;;;;5036382;28;20183;-45
2021/09/22 14:01:07;;;;;;;11.13;3.10;;;;;;;;;;5039424;28;20182;-45
2021/09/22 14:03:34;;;;;;;9.25;3.03;;;;;;;;;;5043080;28;20183;-45
2021/09/22 14:06:00;;;;;;;7.22;2.45;;;;;;;;;;5053776;28;20226;-45
2021/09/22 14:08:28;;;;;;;9.15;2.83;;;;;;;;;;5043502;28;20215;-45
2021/09/22 14:10:55;;;;;;;4.05;2.50;;;;;;;;;;5043156;28;20206;-45
2021/09/22 14:13:21;;;;;;;8.30;2.67;;;;;;;;;;5036023;28;20263;-45
2021/09/22 14:15:48;;;;;;;7.03;2.67;;;;;;;;;;5036395;28;20194;-45
2021/09/22 14:18:14;;;;;;;9.52;2.85;;;;;;;;;;5037789;28;20253;-45
2021/09/22 14:20:41;;;;;;;6.30;2.60;;;;;;;;;;5048275;28;20222;-45
2021/09/22 14:23:08;;;;;;;7.70;2.60;;;;;;;;;;5041582;28;20184;-45
2021/09/22 14:25:37;;;;;;;8.02;2.70;;;;;;;;;;5045711;28;20193;-45
2021/09/22 14:28:03;;;;;;;7.50;2.60;;;;;;;;;;5037602;28;20217;-45
2021/09/22 14:30:29;;;;;;;6.35;2.40;;;;;;;;;;5040020;28;20180;-45
2021/09/22 14:32:55;;;;;;;8.43;2.70;;;;;;;;;;5034994;28;20601;-45
2021/09/22 14:35:22;;;;;;;6.65;2.30;;;;;;;;;;5050987;28;20179;-45
2021/09/22 14:37:48;;;;;;;10.40;2.55;;;;;;;;;;5039845;28;20212;-45
2021/09/22 14:40:15;;;;;;;5.53;2.17;;;;;;;;;;5033860;28;20609;-45
2021/09/22 14:42:42;;;;;;;4.40;2.08;;;;;;;;;;5041723;28;20183;-45
2021/09/22 14:45:09;;;;;;;4.15;2.47;;;;;;;;;;5041654;28;20192;-45
2021/09/22 14:47:36;;;;;;;3.28;2.33;;;;;;;;;;5044434;28;20610;-45
2021/09/22 14:50:06;;;;;;;7.78;2.22;;;;;;;;;;5032960;28;20547;-45
2021/09/22 14:52:32;;;;;;;4.22;1.95;;;;;;;;;;5035288;28;20255;-45
2021/09/22 14:54:58;;;;;;;5.70;2.58;;;;;;;;;;5039198;28;20559;-45
2021/09/22 14:57:25;;;;;;;4.05;2.20;;;;;;;;;;5034723;28;20194;-45
2021/09/22 14:59:51;;;;;;;6.60;2.50;;;;;;;;;;5015382;28;20217;-45
2021/09/22 15:02:17;;;;;;;4.20;2.10;;;;;;;;;;5033801;28;20200;-46
2021/09/22 15:04:43;;;;;;;7.40;2.85;;;;;;;;;;5033437;28;20203;-45
2021/09/22 15:07:09;;;;;;;4.15;2.38;;;;;;;;;;5045829;28;20207;-45
2021/09/22 15:09:35;;;;;;;5.15;2.50;;;;;;;;;;5019440;28;20187;-45
2021/09/22 15:12:01;;;;;;;7.65;3.00;;;;;;;;;;5036986;28;20180;-45
2021/09/22 15:14:27;;;;;;;6.70;2.80;;;;;;;;;;5045607;28;20789;-45
2021/09/22 15:16:53;;;;;;;6.00;2.72;;;;;;;;;;5039835;28;20226;-45
2021/09/22 15:19:20;;;;;;;6.03;2.67;;;;;;;;;;5026322;28;20580;-45
2021/09/22 15:21:46;;;;;;;6.72;2.72;;;;;;;;;;5014643;28;20180;-45
2021/09/22 15:24:12;;;;;;;7.68;2.67;;;;;;;;;;5014207;28;20184;-45
2021/09/22 15:26:38;;;;;;;4.70;2.42;;;;;;;;;;5014718;28;20168;-45
2021/09/22 15:29:04;;;;;;;6.40;2.47;;;;;;;;;;5029145;28;20241;-45
2021/09/22 15:31:30;;;;;;;4.20;2.40;;;;;;;;;;5034268;28;20239;-45
2021/09/22 15:33:56;;;;;;;4.22;2.60;;;;;;;;;;5033672;28;20179;-45
2021/09/22 15:36:22;;;;;;;6.72;2.55;;;;;;;;;;5034041;28;20692;-45
2021/09/22 15:38:48;;;;;;;4.10;2.55;;;;;;;;;;5021611;28;20188;-45
2021/09/22 15:41:14;;;;;;;5.78;3.00;;;;;;;;;;5014375;28;20187;-45
2021/09/22 15:43:40;;;;;;;5.25;2.40;;;;;;;;;;5014256;28;20192;-45
2021/09/22 15:46:06;;;;;;;4.63;2.45;;;;;;;;;;5017418;28;20183;-45
2021/09/22 15:48:32;;;;;;;7.75;2.88;;;;;;;;;;5030323;28;20234;-45
2021/09/22 15:51:07;;;;;;;5.22;2.58;;;;;;;;;;5033653;28;20172;-45
2021/09/22 15:53:33;;;;;;;5.53;2.80;;;;;;;;;;5031626;28;20199;-45
2021/09/22 15:55:59;;;;;;;3.78;2.20;;;;;;;;;;5031175;28;20190;-45
2021/09/22 15:58:25;;;;;;;5.93;2.78;;;;;;;;;;5030129;28;20574;-45
2021/09/22 16:00:54;;;;;;;5.82;3.17;;;;;;;;;;5033422;28;20207;-45
2021/09/22 16:03:21;;;;;;;4.57;2.30;;;;;;;;;;5031736;28;20245;-45
2021/09/22 16:05:47;;;;;;;5.03;2.65;;;;;;;;;;5033918;28;20168;-45
2021/09/22 16:08:13;;;;;;;5.68;2.60;;;;;;;;;;5031953;28;20578;-45
2021/09/22 16:10:39;;;;;;;5.00;2.50;;;;;;;;;;5033468;28;20226;-45
2021/09/22 16:13:08;;;;;;;6.03;2.53;;;;;;;;;;5026531;28;20266;-45
2021/09/22 16:15:34;;;;;;;5.22;2.72;;;;;;;;;;5033597;28;20176;-45
2021/09/22 16:18:01;;;;;;;4.93;2.58;;;;;;;;;;5032267;28;20191;-45
2021/09/22 16:20:27;;;;;;;3.45;2.35;;;;;;;;;;5033514;28;20259;-45
2021/09/22 16:22:53;;;;;;;5.93;2.78;;;;;;;;;;5033484;28;20486;-45
2021/09/22 16:28:05;;;;;;;4.57;2.60;;;;;;;;;;5028452;28;20593;-47
2021/09/22 16:30:31;;;;;;;4.13;2.92;;;;;;;;;;5032658;28;20271;-47
2021/09/22 16:32:57;;;;;;;4.03;2.67;;;;;;;;;;5027146;28;20504;-48
2021/09/22 16:35:23;;;;;;;5.07;2.58;;;;;;;;;;5031247;28;20199;-47
2021/09/22 16:37:49;;;;;;;5.72;2.53;;;;;;;;;;5022935;28;20188;-47
2021/09/22 16:40:15;;;;;;;4.88;2.40;;;;;;;;;;5029926;28;20215;-47
2021/09/22 16:42:42;;;;;;;5.45;2.47;;;;;;;;;;5031816;28;20188;-47
2021/09/22 16:45:08;;;;;;;4.70;2.50;;;;;;;;;;5032622;28;20176;-47
2021/09/22 16:47:34;;;;;;;5.15;2.13;;;;;;;;;;5031870;28;20242;-47
2021/09/22 16:50:00;;;;;;;4.45;2.67;;;;;;;;;;5032875;28;20231;-47
2021/09/22 16:52:31;;;;;;;5.75;2.45;;;;;;;;;;5029776;28;20215;-47
2021/09/22 16:54:57;;;;;;;5.32;2.17;;;;;;;;;;5021299;28;20187;-47
2021/09/22 16:57:24;;;;;;;4.13;2.58;;;;;;;;;;5032564;28;20188;-47
2021/09/22 16:59:50;;;;;;;4.22;2.47;;;;;;;;;;5030868;28;20180;-47
2021/09/22 17:02:16;;;;;;;5.22;2.50;;;;;;;;;;5025886;28;20177;-47
2021/09/22 17:04:42;;;;;;;4.13;2.63;;;;;;;;;;5023999;28;20208;-47
2021/09/22 17:07:08;;;;;;;4.78;2.53;;;;;;;;;;5033435;28;20458;-47
2021/09/22 17:09:34;;;;;;;5.10;2.67;;;;;;;;;;5032622;28;20187;-47
2021/09/22 17:12:01;;;;;;;5.20;2.90;;;;;;;;;;5032460;28;20196;-47
2021/09/22 17:14:27;;;;;;;4.75;2.38;;;;;;;;;;5031429;28;20278;-47
2021/09/22 17:16:53;;;;;;;3.05;2.25;;;;;;;;;;5036270;28;20350;-47
2021/09/22 17:19:21;;;;;;;3.92;2.20;;;;;;;;;;5037044;28;20219;-47
2021/09/22 17:21:47;;;;;;;3.08;2.28;;;;;;;;;;5024980;28;20183;-47
2021/09/22 17:24:13;;;;;;;3.50;2.22;;;;;;;;;;5023348;28;20186;-47
2021/09/22 17:26:40;;;;;;;4.57;2.58;;;;;;;;;;5037109;28;20260;-47
2021/09/22 17:29:06;;;;;;;3.75;2.33;;;;;;;;;;5037216;28;20222;-47
2021/09/22 17:31:32;;;;;;;3.70;2.38;;;;;;;;;;5037230;28;20160;-47
2021/09/22 17:33:58;;;;;;;4.60;2.88;;;;;;;;;;5034952;28;20253;-47
2021/09/22 17:36:24;;;;;;;2.92;2.38;;;;;;;;;;5022568;28;20476;-47
2021/09/22 17:38:51;;;;;;;3.50;2.55;;;;;;;;;;5036621;28;20225;-47
2021/09/22 17:41:23;;;;;;;3.97;2.58;;;;;;;;;;5037139;28;20524;-47
2021/09/22 17:43:53;;;;;;;5.00;2.80;;;;;;;;;;5034713;28;20254;-47
2021/09/22 17:46:24;;;;;;;4.82;2.53;;;;;;;;;;5017018;28;20506;-47
2021/09/22 17:48:51;;;;;;;3.42;2.75;;;;;;;;;;5016857;28;20235;-47
2021/09/22 17:51:17;;;;;;;3.15;2.60;;;;;;;;;;5017013;28;20211;-47
2021/09/22 17:53:43;;;;;;;5.15;2.60;;;;;;;;;;5016608;28;20635;-47
2021/09/22 17:56:09;;;;;;;4.15;2.55;;;;;;;;;;5018032;28;20271;-47
2021/09/22 17:58:35;;;;;;;3.38;2.40;;;;;;;;;;5016942;28;20540;-47
2021/09/22 18:01:01;;;;;;;3.90;2.53;;;;;;;;;;5016778;28;20173;-47
2021/09/22 18:03:30;;;;;;;4.25;2.50;;;;;;;;;;5016447;28;20580;-48
2021/09/22 18:05:56;;;;;;;8.68;3.00;;;;;;;;;;5019970;28;20214;-47
2021/09/22 18:08:22;;;;;;;4.10;2.40;;;;;;;;;;5027812;28;20219;-47
2021/09/22 18:10:49;;;;;;;4.05;2.35;;;;;;;;;;5036177;28;20184;-47
2021/09/22 18:13:15;;;;;;;3.88;2.53;;;;;;;;;;5035891;28;20253;-47
2021/09/22 18:15:41;;;;;;;3.08;2.30;;;;;;;;;;5034336;28;20527;-47
2021/09/22 18:18:07;;;;;;;4.68;2.58;;;;;;;;;;5016601;28;20172;-47
2021/09/22 18:20:33;;;;;;;4.10;2.40;;;;;;;;;;5052675;28;20312;-47
2021/09/22 18:22:59;;;;;;;3.67;2.60;;;;;;;;;;5052350;28;20271;-47
2021/09/22 18:25:25;;;;;;;4.15;2.45;;;;;;;;;;5035507;28;20199;-47
2021/09/22 18:27:51;;;;;;;2.95;2.20;;;;;;;;;;5035434;28;20204;-47
2021/09/22 18:30:17;;;;;;;4.53;2.60;;;;;;;;;;5035530;28;20191;-47
2021/09/22 18:32:43;;;;;;;3.78;2.10;;;;;;;;;;5035139;28;20434;-47
2021/09/22 18:35:09;;;;;;;3.25;2.50;;;;;;;;;;5035335;28;20452;-48
2021/09/22 18:37:35;;;;;;;2.75;2.00;;;;;;;;;;5035380;28;20266;-47
2021/09/22 18:40:01;;;;;;;4.10;2.20;;;;;;;;;;5036042;28;20275;-47
2021/09/22 18:42:28;;;;;;;7.75;4.70;;;;;;;;;;5035526;28;20184;-47
2021/09/22 18:44:54;;;;;;;12.40;6.00;;;;;;;;;;5033797;28;20196;-47
2021/09/22 18:47:20;;;;;;;40.63;17.98;;;;;;;;;;5035693;28;20559;-47
2021/09/22 18:49:46;;;;;;;88.90;40.40;;;;;;;;;;5035549;28;20214;-47